Westbrookville, NY (12785)

3:21 AM EDT on October 31, 2014 (GMT -0400)
Oakland Valley, NY | Change Station
CLOSE
Current Station
Personal Weather Station
Location: Cuddebackville, NY
Elevation: 978 ft
Nearby Weather Stations

Elev 978 ft 41.49 °N, 74.62 °W | Updated 9 minutes ago

Clear
Clear
30.0 °F
Feels Like 30 °F
N
1.7
Wind Variable Wind from NE

Today
High -- | Low -- °F
--% Chance of Precip.
Yesterday
High -- | Low -- °F
Precip. -- in
7:28 AM 5:54 PM
First Quarter, 52% visible
Pressure 30.03 in
Visibility 10.0 miles
Clouds Clear
Windchill 30 °F
Dew Point 29 °F
Humidity 95%
Rainfall 0.00 in
Snow Depth Not available.
UV 0 out of 12
Pollen .90 out of 12
Air Quality Not available.
Flu Activity Not available.
METAR KMGJ 310654Z AUTO 00000KT 10SM CLR 01/00 A3002 RMK AO2 SLP168 T00110000 TSNO

More Conditions Fewer Conditions

Pressure 30.03 in
Visibility 10.0 miles
Clouds Clear
Windchill 30 °F
Dew Point 29 °F
Humidity 95%
Rainfall 0.00 in
Snow Depth Not available.
UV 0 out of 12
Pollen .90 out of 12
Air Quality Not available.
Flu Activity Not available.
METAR KMGJ 310654Z AUTO 00000KT 10SM CLR 01/00 A3002 RMK AO2 SLP168 T00110000 TSNO

More Conditions Fewer Conditions

10-Day Weather Forecast

Almanac

Astronomy

Oct. 31, 2014 Rise Set
Actual Time
Civil Twilight
Nautical Twilight
Astronomical Twilight
Moon
Length of Visible Light
Length of Day
Tomorrow will be .
, % of the Moon is Illuminated

Today's Extremes

State Highs State Lows

Community

WunderPhotos

Upload Photos

1,766,573 photos uploaded!

WunderBlogs® & News

Nearby

Air Quality

  Air Quality AQ Index Pollutant
Not available.

Snow Depth

Station Depth Elevation

Earthquake Activity

City Distance Mag. Time & Date
Minimum magnitude displayed is 2.5.

Coastal Water Temperatures

Place Temperature

Nearby Weather Stations